createdAt,value
2019-04-04T00:01:48.203Z,4.13
2019-04-04T00:04:15.347Z,4.57
2019-04-04T00:06:42.331Z,4.60
2019-04-04T00:09:12.070Z,4.73
2019-04-04T00:11:39.309Z,4.73
2019-04-04T00:14:06.603Z,5.17
2019-04-04T00:16:33.474Z,4.63
2019-04-04T00:19:00.274Z,4.87
2019-04-04T00:21:27.273Z,4.50
2019-04-04T00:23:54.635Z,5.33
2019-04-04T00:26:22.579Z,4.83
2019-04-04T00:28:49.403Z,5.10
2019-04-04T00:31:18.862Z,4.37
2019-04-04T00:33:44.941Z,4.83
2019-04-04T00:36:11.759Z,4.63
2019-04-04T00:38:39.811Z,4.73
2019-04-04T00:41:08.564Z,4.57
2019-04-04T00:43:35.469Z,4.63
2019-04-04T00:46:02.257Z,4.87
2019-04-04T00:48:29.279Z,4.67
2019-04-04T00:50:56.012Z,4.60
2019-04-04T00:53:22.793Z,4.90
2019-04-04T00:55:49.569Z,4.60
2019-04-04T00:58:18.897Z,4.53
2019-04-04T01:00:46.701Z,4.50
2019-04-04T01:03:16.605Z,5.40
2019-04-04T01:05:43.420Z,4.20
2019-04-04T01:08:10.147Z,4.33
2019-04-04T01:10:36.926Z,4.10
2019-04-04T01:13:03.681Z,4.37
2019-04-04T01:15:31.145Z,4.47
2019-04-04T01:17:58.764Z,4.87
2019-04-04T01:20:25.497Z,4.90
2019-04-04T01:22:55.757Z,4.80
2019-04-04T01:25:21.132Z,4.67
2019-04-04T01:27:49.796Z,4.57
2019-04-04T01:30:17.043Z,4.63
2019-04-04T01:32:46.275Z,4.53
2019-04-04T01:35:14.545Z,4.30
2019-04-04T01:37:41.505Z,4.40
2019-04-04T01:40:08.270Z,4.13
2019-04-04T01:42:37.869Z,3.80
2019-04-04T01:45:04.353Z,3.77
2019-04-04T01:47:31.255Z,4.10
2019-04-04T01:49:59.386Z,3.90
2019-04-04T01:52:28.704Z,4.10
2019-04-04T01:54:55.442Z,3.73
2019-04-04T01:57:22.322Z,4.00
2019-04-04T01:59:51.111Z,3.73
2019-04-04T02:02:18.628Z,3.90
2019-04-04T02:04:45.590Z,3.97
2019-04-04T02:07:12.522Z,3.93
2019-04-04T02:09:43.370Z,3.97
2019-04-04T02:12:10.351Z,3.67
2019-04-04T02:14:37.221Z,3.83
2019-04-04T02:17:04.791Z,3.60
2019-04-04T02:19:31.536Z,3.80
2019-04-04T02:21:59.869Z,3.87
2019-04-04T02:24:27.352Z,3.53
2019-04-04T02:26:57.203Z,3.70
2019-04-04T02:29:25.997Z,3.77
2019-04-04T02:31:56.291Z,3.73
2019-04-04T02:34:23.028Z,3.37
2019-04-04T02:36:51.186Z,4.13
2019-04-04T02:39:19.514Z,4.10
2019-04-04T02:41:50.674Z,3.40
2019-04-04T02:44:17.415Z,4.20
2019-04-04T02:46:45.633Z,4.10
2019-04-04T02:49:12.705Z,3.70
2019-04-04T02:51:41.077Z,3.67
2019-04-04T02:54:08.107Z,4.00
2019-04-04T02:56:36.094Z,4.10
2019-04-04T02:59:05.620Z,4.70
2019-04-04T03:01:33.316Z,4.67
2019-04-04T03:04:00.294Z,4.60
2019-04-04T03:06:30.049Z,4.73
2019-04-04T03:08:57.344Z,4.10
2019-04-04T03:11:24.859Z,4.10
2019-04-04T03:13:51.691Z,4.40
2019-04-04T03:16:21.339Z,3.80
2019-04-04T03:18:49.687Z,4.17
2019-04-04T03:21:16.468Z,3.43
2019-04-04T03:23:43.550Z,3.70
2019-04-04T03:26:10.381Z,3.87
2019-04-04T03:28:37.142Z,4.10
2019-04-04T03:31:04.294Z,3.73
2019-04-04T03:33:32.699Z,4.27
2019-04-04T03:36:00.954Z,3.83
2019-04-04T03:38:28.221Z,3.87
2019-04-04T03:40:57.871Z,3.83
2019-04-04T03:43:23.962Z,3.73
2019-04-04T03:45:50.715Z,4.13
2019-04-04T03:48:18.731Z,4.30
2019-04-04T03:50:45.844Z,4.00
2019-04-04T03:53:16.260Z,4.30
2019-04-04T03:55:41.431Z,3.90
2019-04-04T03:58:08.137Z,4.10
2019-04-04T04:00:39.207Z,3.90
2019-04-04T04:03:03.952Z,4.30
2019-04-04T04:05:33.775Z,3.97
2019-04-04T04:08:01.799Z,4.20
2019-04-04T04:10:32.276Z,4.20
2019-04-04T04:12:58.863Z,4.30
2019-04-04T04:15:29.286Z,3.87
2019-04-04T04:17:54.345Z,4.60
2019-04-04T04:20:21.056Z,4.33
2019-04-04T04:22:50.438Z,4.50
2019-04-04T04:25:16.888Z,4.13
2019-04-04T04:27:47.336Z,4.50
2019-04-04T04:30:12.690Z,4.03
2019-04-04T04:32:39.446Z,4.67
2019-04-04T04:35:08.569Z,4.03
2019-04-04T04:37:35.784Z,4.30
2019-04-04T04:40:03.195Z,4.40
2019-04-04T04:42:29.920Z,4.70
2019-04-04T04:44:56.691Z,4.60
2019-04-04T04:47:24.101Z,5.30
2019-04-04T04:49:55.144Z,5.27
2019-04-04T04:52:19.705Z,5.40
2019-04-04T04:54:46.481Z,5.17
2019-04-04T04:57:28.356Z,5.07
2019-04-04T04:59:44.295Z,5.30
2019-04-04T05:02:10.798Z,5.97
2019-04-04T05:04:37.561Z,5.10
2019-04-04T05:07:07.073Z,5.70
2019-04-04T05:09:33.381Z,5.20
2019-04-04T05:12:00.121Z,4.97
2019-04-04T05:14:29.794Z,4.43
2019-04-04T05:16:56.850Z,4.57
2019-04-04T05:19:23.706Z,5.27
2019-04-04T05:21:50.956Z,4.93
2019-04-04T05:24:18.171Z,5.13
2019-04-04T05:26:45.738Z,4.63
2019-04-04T05:29:14.019Z,5.47
2019-04-04T05:31:41.077Z,5.27
2019-04-04T05:34:08.230Z,6.00
2019-04-04T05:36:37.428Z,5.33
2019-04-04T05:39:06.138Z,5.27
2019-04-04T05:41:32.906Z,5.63
2019-04-04T05:43:59.669Z,5.40
2019-04-04T05:46:27.229Z,5.93
2019-04-04T05:48:54.022Z,6.23
2019-04-04T05:51:20.797Z,5.83
2019-04-04T05:53:47.712Z,5.60
2019-04-04T05:56:15.186Z,4.80
2019-04-04T05:58:42.640Z,4.40
2019-04-04T06:01:11.201Z,4.97
2019-04-04T06:03:37.990Z,6.73
2019-04-04T06:06:05.023Z,5.90
2019-04-04T06:08:32.058Z,6.63
2019-04-04T06:10:59.468Z,8.90
2019-04-04T06:13:27.777Z,7.30
2019-04-04T06:15:54.779Z,6.30
2019-04-04T06:18:21.663Z,5.97
2019-04-04T06:20:49.063Z,6.40
2019-04-04T06:23:16.064Z,6.00
2019-04-04T06:25:43.004Z,5.53
2019-04-04T06:28:11.898Z,6.00
2019-04-04T06:30:43.337Z,6.40
2019-04-04T06:33:09.508Z,7.23
2019-04-04T06:35:39.532Z,6.50
2019-04-04T06:38:05.305Z,6.13
2019-04-04T06:40:32.388Z,6.33
2019-04-04T06:42:59.422Z,6.13
2019-04-04T06:45:30.168Z,5.90
2019-04-04T06:48:00.168Z,5.73
2019-04-04T06:50:27.047Z,5.53
2019-04-04T06:52:56.515Z,7.20
2019-04-04T06:55:22.950Z,5.80
2019-04-04T06:57:51.408Z,5.83
2019-04-04T07:00:18.673Z,5.30
2019-04-04T07:02:47.285Z,5.13
2019-04-04T07:05:16.252Z,5.43
2019-04-04T07:07:43.997Z,5.60
2019-04-04T07:10:11.006Z,5.63
2019-04-04T07:12:38.687Z,5.30
2019-04-04T07:15:05.888Z,5.80
2019-04-04T07:17:42.432Z,6.70
2019-04-04T07:20:07.726Z,4.80
2019-04-04T07:22:41.095Z,5.10
2019-04-04T07:25:13.922Z,5.40
2019-04-04T07:27:40.836Z,4.80
2019-04-04T07:30:08.634Z,4.70
2019-04-04T07:32:35.383Z,5.03
2019-04-04T07:35:02.188Z,4.87
2019-04-04T07:37:28.966Z,4.73
2019-04-04T07:39:56.582Z,4.70
2019-04-04T07:42:23.368Z,5.23
2019-04-04T07:44:50.415Z,4.50
2019-04-04T07:47:17.320Z,4.57
2019-04-04T07:49:44.118Z,10.03
2019-04-04T07:52:11.050Z,5.00
2019-04-04T07:54:38.426Z,4.97
2019-04-04T07:57:06.178Z,4.17
2019-04-04T07:59:32.948Z,3.47
2019-04-04T08:01:59.788Z,3.60
2019-04-04T08:04:26.552Z,3.53
2019-04-04T08:06:53.382Z,3.00
2019-04-04T08:09:20.137Z,3.17
2019-04-04T08:11:49.999Z,3.37
2019-04-04T08:14:17.073Z,2.90
2019-04-04T08:16:43.938Z,3.30
2019-04-04T08:19:10.886Z,3.00
2019-04-04T08:21:37.696Z,2.80
2019-04-04T08:24:04.474Z,2.87
2019-04-04T08:26:31.246Z,3.20
2019-04-04T08:28:58.376Z,3.40
2019-04-04T08:31:25.492Z,4.27
2019-04-04T08:33:52.445Z,3.33
2019-04-04T08:36:19.207Z,4.10
2019-04-04T08:38:45.991Z,3.87
2019-04-04T08:41:12.789Z,4.00
2019-04-04T08:43:40.034Z,3.40
2019-04-04T08:46:07.404Z,3.87
2019-04-04T08:48:34.308Z,3.63
2019-04-04T08:51:02.285Z,4.30
2019-04-04T08:53:39.143Z,3.93
2019-04-04T08:55:57.934Z,3.80
2019-04-04T08:58:24.969Z,4.83
2019-04-04T09:00:51.730Z,4.10
2019-04-04T09:03:18.688Z,3.10
2019-04-04T09:05:48.616Z,3.80
2019-04-04T09:08:15.472Z,3.30
2019-04-04T09:10:42.902Z,4.00
2019-04-04T09:13:10.014Z,3.70
2019-04-04T09:15:39.063Z,6.20
2019-04-04T09:18:11.516Z,4.33
2019-04-04T09:20:40.182Z,4.50
2019-04-04T09:23:10.382Z,3.80
2019-04-04T09:25:37.132Z,3.40
2019-04-04T09:28:03.969Z,3.60
2019-04-04T09:30:31.036Z,3.87
2019-04-04T09:32:58.210Z,3.60
2019-04-04T09:35:25.628Z,3.63
2019-04-04T09:37:53.003Z,4.50
2019-04-04T09:40:22.100Z,3.60
2019-04-04T09:42:49.021Z,3.53
2019-04-04T09:45:15.806Z,3.83
2019-04-04T09:47:47.437Z,3.80
2019-04-04T09:50:14.557Z,4.13
2019-04-04T09:52:44.792Z,3.73
2019-04-04T09:55:11.540Z,4.57
2019-04-04T09:57:38.473Z,3.60
2019-04-04T10:00:07.486Z,3.40
2019-04-04T10:02:34.261Z,3.67
2019-04-04T10:05:05.777Z,4.40
2019-04-04T10:07:31.797Z,3.40
2019-04-04T10:09:59.398Z,3.40
2019-04-04T10:12:29.313Z,3.43
2019-04-04T10:14:56.723Z,3.30
2019-04-04T10:17:23.820Z,3.60
2019-04-04T10:19:50.620Z,3.13
2019-04-04T10:22:19.315Z,3.50
2019-04-04T10:24:46.182Z,3.90
2019-04-04T10:27:12.980Z,3.17
2019-04-04T10:29:42.287Z,2.80
2019-04-04T10:32:09.043Z,3.23
2019-04-04T10:34:41.503Z,2.87
2019-04-04T10:37:10.297Z,3.30
2019-04-04T10:39:42.528Z,3.80
2019-04-04T10:42:09.495Z,3.97
2019-04-04T10:44:37.342Z,2.97
2019-04-04T10:47:06.089Z,2.97
2019-04-04T10:49:33.849Z,2.60
2019-04-04T10:52:01.174Z,3.17
2019-04-04T10:54:28.670Z,2.77
2019-04-04T10:56:55.903Z,2.70
2019-04-04T10:59:25.595Z,1.93
2019-04-04T11:01:52.743Z,2.90
2019-04-04T11:04:19.571Z,2.13
2019-04-04T11:06:46.433Z,2.77
2019-04-04T11:09:14.201Z,3.10
2019-04-04T11:11:43.393Z,2.80
2019-04-04T11:14:10.463Z,3.33
2019-04-04T11:16:37.488Z,3.17
2019-04-04T11:19:06.280Z,3.17
2019-04-04T11:21:33.224Z,2.70
2019-04-04T11:23:59.961Z,2.30
2019-04-04T11:26:26.842Z,3.10
2019-04-04T11:28:53.870Z,2.37
2019-04-04T11:31:20.639Z,2.57
2019-04-04T11:33:47.517Z,2.30
2019-04-04T11:36:17.389Z,3.30
2019-04-04T11:38:47.742Z,1.80
2019-04-04T11:41:16.433Z,1.37
2019-04-04T11:43:43.214Z,2.30
2019-04-04T11:46:10.103Z,1.47
2019-04-04T11:48:49.154Z,1.63
2019-04-04T11:51:21.471Z,1.33
2019-04-04T11:53:52.817Z,2.00
2019-04-04T11:56:27.310Z,2.43
2019-04-04T11:58:54.475Z,1.80
2019-04-04T12:01:32.101Z,1.77
2019-04-04T12:03:59.303Z,1.20
2019-04-04T12:06:26.395Z,1.20
2019-04-04T12:08:57.845Z,1.27
2019-04-04T12:11:24.847Z,1.43
2019-04-04T12:13:51.688Z,1.30
2019-04-04T12:16:20.966Z,1.60
2019-04-04T12:18:49.752Z,1.87
2019-04-04T12:21:18.665Z,1.37
2019-04-04T12:23:51.559Z,1.57
2019-04-04T12:26:23.961Z,1.50
2019-04-04T12:28:50.842Z,1.57
2019-04-04T12:31:20.301Z,1.50
2019-04-04T12:33:47.763Z,1.70
2019-04-04T12:36:24.536Z,1.70
2019-04-04T12:38:50.568Z,2.47
2019-04-04T12:41:17.665Z,3.40
2019-04-04T12:43:44.737Z,1.90
2019-04-04T12:46:14.705Z,2.60
2019-04-04T12:48:43.109Z,1.97
2019-04-04T12:51:32.471Z,2.13
2019-04-04T12:54:02.007Z,1.80
2019-04-04T12:56:29.142Z,2.00
2019-04-04T12:58:57.022Z,1.93
2019-04-04T13:01:23.951Z,1.93
2019-04-04T13:03:50.738Z,2.43
2019-04-04T13:06:20.097Z,2.30
2019-04-04T13:08:51.581Z,1.70
2019-04-04T13:11:21.706Z,2.57
2019-04-04T13:13:51.754Z,2.30
2019-04-04T13:16:18.637Z,2.33
2019-04-04T13:18:46.397Z,2.20
2019-04-04T13:21:16.795Z,2.17
2019-04-04T13:23:46.931Z,2.43
2019-04-04T13:26:13.772Z,1.80
2019-04-04T13:28:40.665Z,2.00
2019-04-04T13:31:11.327Z,2.50
2019-04-04T13:33:38.233Z,2.50
2019-04-04T13:36:05.051Z,2.30
2019-04-04T13:38:33.821Z,1.80
2019-04-04T13:41:00.737Z,1.80
2019-04-04T13:43:28.161Z,1.40
2019-04-04T13:45:55.036Z,1.90
2019-04-04T13:48:22.649Z,1.60
2019-04-04T13:50:49.535Z,1.37
2019-04-04T13:53:16.431Z,1.80
2019-04-04T13:55:44.000Z,2.23
2019-04-04T13:58:13.272Z,1.90
2019-04-04T14:00:39.991Z,1.97
2019-04-04T14:03:08.967Z,1.90
2019-04-04T14:05:36.214Z,1.23
2019-04-04T14:08:03.159Z,1.20
2019-04-04T14:10:32.971Z,1.33
2019-04-04T14:13:00.541Z,2.67
2019-04-04T14:15:27.535Z,2.63
2019-04-04T14:17:56.305Z,1.70
2019-04-04T14:20:23.081Z,2.17
2019-04-04T14:22:51.224Z,1.80
2019-04-04T14:25:18.825Z,1.70
2019-04-04T14:27:45.840Z,1.80
2019-04-04T14:30:12.659Z,1.60
2019-04-04T14:32:40.067Z,1.70
2019-04-04T14:35:07.035Z,1.70
2019-04-04T14:37:33.830Z,1.87
2019-04-04T14:40:00.781Z,1.67
2019-04-04T14:42:27.562Z,2.07
2019-04-04T14:44:54.292Z,1.70
2019-04-04T14:47:21.261Z,2.07
2019-04-04T14:49:48.027Z,2.37
2019-04-04T14:52:19.501Z,1.87
2019-04-04T14:54:45.508Z,1.90
2019-04-04T14:57:12.827Z,1.90
2019-04-04T14:59:42.406Z,2.37
2019-04-04T15:02:10.843Z,2.43
2019-04-04T15:04:39.821Z,2.67
2019-04-04T15:07:10.152Z,3.03
2019-04-04T15:09:37.634Z,2.40
2019-04-04T15:12:04.389Z,2.33
2019-04-04T15:14:37.060Z,1.90
2019-04-04T15:17:03.962Z,2.10
2019-04-04T15:19:31.233Z,2.53
2019-04-04T15:21:58.150Z,3.30
2019-04-04T15:24:25.214Z,2.80
2019-04-04T15:26:55.075Z,2.93
2019-04-04T15:29:22.239Z,2.70
2019-04-04T15:31:49.479Z,4.13
2019-04-04T15:34:16.572Z,2.60
2019-04-04T15:37:25.817Z,2.17
2019-04-04T15:40:12.254Z,2.03
2019-04-04T15:42:46.199Z,2.27
2019-04-04T15:45:13.083Z,2.00
2019-04-04T15:47:41.208Z,2.00
2019-04-04T15:50:19.045Z,2.20
2019-04-04T15:52:45.758Z,2.27
2019-04-04T15:55:12.705Z,2.00
2019-04-04T15:57:39.604Z,1.87
2019-04-04T16:00:08.659Z,1.90
2019-04-04T16:02:38.390Z,1.80
2019-04-04T16:05:05.622Z,1.83
2019-04-04T16:07:32.339Z,1.80
2019-04-04T16:09:59.792Z,1.80
2019-04-04T16:12:26.798Z,1.90
2019-04-04T16:15:03.368Z,2.20
2019-04-04T16:17:30.562Z,2.10
2019-04-04T16:19:57.793Z,1.90
2019-04-04T16:22:24.838Z,1.90
2019-04-04T16:24:52.170Z,2.40
2019-04-04T16:27:18.914Z,2.20
2019-04-04T16:29:45.909Z,2.33
2019-04-04T16:32:12.642Z,1.50
2019-04-04T16:34:39.424Z,2.20
2019-04-04T16:37:08.275Z,1.83
2019-04-04T16:39:35.510Z,2.40
2019-04-04T16:42:03.347Z,1.83
2019-04-04T16:44:30.331Z,1.83
2019-04-04T16:46:57.705Z,1.80
2019-04-04T16:49:24.976Z,1.90
2019-04-04T16:51:53.419Z,2.10
2019-04-04T16:54:20.380Z,2.03
2019-04-04T16:56:49.782Z,1.90
2019-04-04T16:59:16.819Z,2.07
2019-04-04T17:01:44.084Z,1.93
2019-04-04T17:04:11.040Z,2.20
2019-04-04T17:06:38.361Z,1.93
2019-04-04T17:09:06.580Z,2.20
2019-04-04T17:11:33.486Z,2.07
2019-04-04T17:14:00.440Z,2.30
2019-04-04T17:16:27.250Z,2.10
2019-04-04T17:18:54.030Z,2.80
2019-04-04T17:21:20.801Z,1.70
2019-04-04T17:23:47.633Z,2.80
2019-04-04T17:26:14.378Z,2.30
2019-04-04T17:28:41.183Z,1.83
2019-04-04T17:31:08.465Z,1.80
2019-04-04T17:33:35.759Z,2.00
2019-04-04T17:36:02.631Z,1.87
2019-04-04T17:38:29.605Z,3.47
2019-04-04T17:40:56.318Z,2.03
2019-04-04T17:43:23.158Z,2.10
2019-04-04T17:45:50.563Z,1.97
2019-04-04T17:48:17.673Z,1.63
2019-04-04T17:50:48.612Z,2.10
2019-04-04T17:53:15.611Z,2.10
2019-04-04T17:55:42.532Z,3.37
2019-04-04T17:58:09.413Z,2.40
2019-04-04T18:00:36.170Z,2.00
2019-04-04T18:03:03.862Z,2.60
2019-04-04T18:05:30.714Z,2.70
2019-04-04T18:07:58.239Z,3.07
2019-04-04T18:10:25.352Z,3.00
2019-04-04T18:12:52.242Z,2.30
2019-04-04T18:15:21.444Z,1.90
2019-04-04T18:17:48.148Z,2.03
2019-04-04T18:20:17.469Z,2.60
2019-04-04T18:22:44.304Z,2.10
2019-04-04T18:25:11.074Z,2.70
2019-04-04T18:27:38.051Z,2.30
2019-04-04T18:30:06.385Z,2.60
2019-04-04T18:32:35.591Z,2.50
2019-04-04T18:35:02.616Z,2.40
2019-04-04T18:37:29.854Z,3.00
2019-04-04T18:39:57.146Z,2.33
2019-04-04T18:42:24.762Z,2.70
2019-04-04T18:44:51.868Z,3.00
2019-04-04T18:47:19.793Z,2.73
2019-04-04T18:49:48.377Z,2.83
2019-04-04T18:52:15.453Z,2.57
2019-04-04T18:54:43.403Z,2.80
2019-04-04T18:57:16.909Z,3.00
2019-04-04T18:59:46.092Z,2.87
2019-04-04T19:02:12.856Z,3.40
2019-04-04T19:04:39.790Z,3.33
2019-04-04T19:07:06.923Z,3.83
2019-04-04T19:09:33.797Z,3.43
2019-04-04T19:12:00.825Z,3.47
2019-04-04T19:14:29.201Z,3.70
2019-04-04T19:16:56.012Z,4.10
2019-04-04T19:19:22.762Z,3.87
2019-04-04T19:21:49.512Z,4.00
2019-04-04T19:24:16.242Z,3.90
2019-04-04T19:26:43.018Z,4.53
2019-04-04T19:29:09.747Z,3.90
2019-04-04T19:31:36.494Z,4.80
2019-04-04T19:34:05.685Z,3.80
2019-04-04T19:36:36.054Z,4.80
2019-04-04T19:39:07.326Z,4.40
2019-04-04T19:41:37.437Z,4.63
2019-04-04T19:44:04.738Z,4.97
2019-04-04T19:46:37.160Z,4.80
2019-04-04T19:49:03.138Z,5.57
2019-04-04T19:51:29.982Z,5.20
2019-04-04T19:53:57.791Z,5.03
2019-04-04T19:56:24.692Z,5.30
2019-04-04T19:58:54.200Z,5.37
2019-04-04T20:01:21.170Z,5.27
2019-04-04T20:03:48.156Z,4.50
2019-04-04T20:06:14.922Z,5.13
2019-04-04T20:08:41.654Z,5.33
2019-04-04T20:11:08.414Z,5.90
2019-04-04T20:13:35.645Z,5.40
2019-04-04T20:16:02.513Z,4.93
2019-04-04T20:18:29.748Z,5.07
2019-04-04T20:20:56.582Z,5.50
2019-04-04T20:23:23.476Z,5.40
2019-04-04T20:25:50.277Z,5.20
2019-04-04T20:28:17.257Z,5.47
2019-04-04T20:30:46.864Z,5.57
2019-04-04T20:33:13.778Z,6.00
2019-04-04T20:35:41.100Z,5.57
2019-04-04T20:38:07.856Z,5.90
2019-04-04T20:40:34.702Z,5.73
2019-04-04T20:43:01.465Z,6.33
2019-04-04T20:45:28.303Z,5.80
2019-04-04T20:47:55.212Z,7.43
2019-04-04T20:50:23.940Z,7.03
2019-04-04T20:52:51.056Z,6.80
2019-04-04T20:55:17.828Z,6.60
2019-04-04T20:57:44.570Z,7.40
2019-04-04T21:00:11.570Z,7.10
2019-04-04T21:02:38.321Z,6.67
2019-04-04T21:05:05.098Z,6.13
2019-04-04T21:07:31.990Z,6.00
2019-04-04T21:09:59.055Z,6.23
2019-04-04T21:12:25.839Z,6.80
2019-04-04T21:14:52.761Z,7.23
2019-04-04T21:17:19.535Z,7.53
2019-04-04T21:19:46.322Z,7.20
2019-04-04T21:22:26.548Z,7.20
2019-04-04T21:24:42.359Z,6.87
2019-04-04T21:27:09.109Z,6.73
2019-04-04T21:29:36.152Z,6.87
2019-04-04T21:32:02.907Z,6.90
2019-04-04T21:34:29.669Z,7.60
2019-04-04T21:36:56.425Z,7.60
2019-04-04T21:39:23.183Z,7.40
2019-04-04T21:41:49.924Z,7.23
2019-04-04T21:44:16.809Z,6.90
2019-04-04T21:46:43.666Z,6.80
2019-04-04T21:49:10.564Z,6.90
2019-04-04T21:51:37.328Z,7.00
2019-04-04T21:54:04.385Z,7.40
2019-04-04T21:56:31.153Z,6.57
2019-04-04T21:58:58.069Z,6.40
2019-04-04T22:01:24.919Z,6.70
2019-04-04T22:03:51.681Z,7.47
2019-04-04T22:06:18.493Z,6.20
2019-04-04T22:08:45.318Z,7.00
2019-04-04T22:11:12.259Z,6.83
2019-04-04T22:13:39.183Z,7.00
2019-04-04T22:16:06.610Z,6.57
2019-04-04T22:18:33.595Z,6.03
2019-04-04T22:21:00.391Z,7.07
2019-04-04T22:23:27.433Z,6.73
2019-04-04T22:25:54.270Z,6.70
2019-04-04T22:28:21.315Z,6.50
2019-04-04T22:30:48.141Z,6.70
2019-04-04T22:33:14.973Z,6.70
2019-04-04T22:35:42.023Z,7.20
2019-04-04T22:38:09.092Z,6.97
2019-04-04T22:40:36.196Z,6.87
2019-04-04T22:43:02.923Z,7.77
2019-04-04T22:45:29.764Z,7.50
2019-04-04T22:47:56.479Z,7.63
2019-04-04T22:50:23.231Z,7.90
2019-04-04T22:52:49.953Z,8.73
2019-04-04T22:55:16.879Z,7.60
2019-04-04T22:57:45.526Z,7.73
2019-04-04T23:00:12.471Z,8.77
2019-04-04T23:02:40.131Z,8.00
2019-04-04T23:05:06.877Z,9.03
2019-04-04T23:07:36.637Z,8.23
2019-04-04T23:10:04.416Z,8.63
2019-04-04T23:12:31.125Z,9.20
2019-04-04T23:14:57.961Z,10.13
2019-04-04T23:17:24.681Z,9.60
2019-04-04T23:19:51.421Z,8.63
2019-04-04T23:22:18.168Z,9.30
2019-04-04T23:24:44.902Z,8.70
2019-04-04T23:27:11.625Z,9.07
2019-04-04T23:29:38.363Z,8.13
2019-04-04T23:32:05.105Z,7.83
2019-04-04T23:34:31.837Z,8.03
2019-04-04T23:36:58.636Z,8.17
2019-04-04T23:39:25.355Z,8.60
2019-04-04T23:41:52.113Z,8.73
2019-04-04T23:44:19.149Z,9.30
2019-04-04T23:46:46.012Z,8.67
2019-04-04T23:49:12.815Z,7.97
2019-04-04T23:51:39.537Z,9.23
2019-04-04T23:54:06.303Z,7.80
2019-04-04T23:56:32.985Z,7.53
2019-04-04T23:58:59.731Z,7.87
